Main page
METAR-TAF:

METAR-TAF

Airports :

London-Gatwick, England

Gatwick Airport

latitude: 51-09N, longitude: 000-11W, elevation: 62 m

Current weather observation

The report was made 19 minutes ago, at 21:20 UTC
Wind 2 kt from variable directions
Temperature -1°C
Humidity 86%
Pressure 1026 hPa
Visibility: 4900 m
Broken clouds at a height of 1900 ft
haze

METAR: EGKK 212120Z VRB02KT 4900 HZ BKN019 M01/M03 Q1026

Time: 21:39 (21:39 UTC)

Forecast

The report was made 3 hours and 39 minutes ago, at 18:00 UTC
Forecast valid from 21 at 18 UTC to 22 at 24 UTC
Wind 4 kt from the East/Southeast
Visibility 10 km or more
Few clouds at a height of 2000 ft
Temporary
from 21 at 18 UTC to 22 at 10 UTC
Visibility: 7000 m
Probability 30%
from 21 at 20 UTC to 22 at 10 UTC
Visibility: 3000 m
mist
Probability 40%
from 22 at 18 UTC to 22 at 24 UTC
Visibility: 2000 m
mist

TAF: EGKK 211800Z 2118/2224 11004KT 9999 FEW020 TEMPO 2118/2210 7000 PROB30 2120/2210 3000 BR PROB40 2218/2224 2000 BR

Weather observations and forecasts of more than 4000 airports (METAR and TAF reports).

The available stations are represented by yellow and red dots on the map.

Hover mouse over dot to see the name of the station.

Then click to see weather observations and forecasts.

To change the map : click on the green buttons with a black cross to zoom in, on the green button with a dash to zoom out, or on the green arrows for adjacent maps.


METAR-TAF: